Anderson Grade Atmospheric Data: 07/12/2019 Summary  Detailed Graphs  Station List

  Temperature     Wind Precipitation Visibility
Timestamp Air Wet
Bulb
Dew-
point
24-hr
Max
24-hr
Min
Relative
Humidity
Atmospheric
Pressure
Avg
Speed
Avg
Dir
Spot
Speed
Spot
Dir
Max
Speed
Max
Dir
  Rate Situation Start End 1 hr 3 hr 6 hr 12 hr 24 hr   Situation
Date Time °F °F °F °F °F % in Hg mph ° mph ° mph ° Y/N in/hr text Date Time Date Time in in in in in mi text
07/12/2019 12:01 AM 71.78 58.64 49.10 89.06 56.84 44.0 Not Reported 3.13 N 5.59 N 7.38 NW No 0.000 No Precipitation 05/28/2019 02:32 PM 05/28/2019 02:40 PM 0.000 0.000 0.000 0.000 0.000 Not Reported Not Reported
07/12/2019 12:16 AM 71.42 58.64 49.46 89.06 56.84 45.0 Not Reported 4.25 N 2.91 NW 7.38 N No 0.000 No Precipitation 05/28/2019 02:32 PM 05/28/2019 02:40 PM 0.000 0.000 0.000 0.000 0.000 Not Reported Not Reported
07/12/2019 12:31 AM 70.88 58.64 49.82 89.06 56.84 47.0 Not Reported 3.80 N 0.89 N 7.16 N No 0.000 No Precipitation 05/28/2019 02:32 PM 05/28/2019 02:40 PM 0.000 0.000 0.000 0.000 0.000 Not Reported Not Reported
07/12/2019 12:46 AM 69.62 58.28 50.00 89.06 56.84 49.0 Not Reported 2.91 NW 2.46 N 6.49 N No 0.000 No Precipitation 05/28/2019 02:32 PM 05/28/2019 02:40 PM 0.000 0.000 0.000 0.000 0.000 Not Reported Not Reported
07/12/2019 01:01 AM 69.98 58.46 50.36 89.06 56.84 49.0 Not Reported 3.80 N 4.25 NE 6.26 NW No 0.000 No Precipitation 05/28/2019 02:32 PM 05/28/2019 02:40 PM 0.000 0.000 0.000 0.000 0.000 Not Reported Not Reported
07/12/2019 01:16 AM 69.62 58.64 50.72 89.06 56.84 51.0 Not Reported 2.68 NW 3.13 NW 6.49 NE No 0.000 No Precipitation 05/28/2019 02:32 PM 05/28/2019 02:40 PM 0.000 0.000 0.000 0.000 0.000 Not Reported Not Reported
07/12/2019 01:31 AM 69.08 58.82 51.80 89.06 56.84 53.0 Not Reported 3.80 N 4.03 N 5.82 N No 0.000 No Precipitation 05/28/2019 02:32 PM 05/28/2019 02:40 PM 0.000 0.000 0.000 0.000 0.000 Not Reported Not Reported
07/12/2019 01:46 AM 68.90 58.82 51.98 89.06 56.84 54.0 Not Reported 2.91 N 1.34 NE 4.70 N No 0.000 No Precipitation 05/28/2019 02:32 PM 05/28/2019 02:40 PM 0.000 0.000 0.000 0.000 0.000 Not Reported Not Reported
07/12/2019 02:01 AM 67.64 58.46 52.16 89.06 56.84 57.0 Not Reported 3.80 N 1.79 NW 5.59 NW No 0.000 No Precipitation 05/28/2019 02:32 PM 05/28/2019 02:40 PM 0.000 0.000 0.000 0.000 0.000 Not Reported Not Reported
07/12/2019 02:16 AM 67.10 58.28 52.34 89.06 56.84 59.0 Not Reported 1.12 NW 2.01 N 4.92 N No 0.000 No Precipitation 05/28/2019 02:32 PM 05/28/2019 02:40 PM 0.000 0.000 0.000 0.000 0.000 Not Reported Not Reported
07/12/2019 02:31 AM 66.56 58.10 52.16 89.06 56.84 59.0 Not Reported 2.91 NW 2.01 N 3.58 NW No 0.000 No Precipitation 05/28/2019 02:32 PM 05/28/2019 02:40 PM 0.000 0.000 0.000 0.000 0.000 Not Reported Not Reported
07/12/2019 02:46 AM 65.30 57.56 52.16 89.06 56.84 62.0 Not Reported 0.89 N 1.57 N 4.47 N No 0.000 No Precipitation 05/28/2019 02:32 PM 05/28/2019 02:40 PM 0.000 0.000 0.000 0.000 0.000 Not Reported Not Reported
07/12/2019 03:01 AM 64.40 57.20 52.16 89.06 56.84 64.0 Not Reported 1.79 N 1.34 N 2.91 N No 0.000 No Precipitation 05/28/2019 02:32 PM 05/28/2019 02:40 PM 0.000 0.000 0.000 0.000 0.000 Not Reported Not Reported
07/12/2019 03:16 AM 64.04 57.02 51.98 89.06 56.84 64.0 Not Reported 3.36 N 2.91 N 4.25 N No 0.000 No Precipitation 05/28/2019 02:32 PM 05/28/2019 02:40 PM 0.000 0.000 0.000 0.000 0.000 Not Reported Not Reported
07/12/2019 03:31 AM 64.04 56.66 51.44 89.06 56.84 63.0 Not Reported 3.80 N 3.58 N 4.25 N No 0.000 No Precipitation 05/28/2019 02:32 PM 05/28/2019 02:40 PM 0.000 0.000 0.000 0.000 0.000 Not Reported Not Reported
07/12/2019 03:46 AM 64.58 56.84 51.08 89.06 56.84 61.0 Not Reported 3.36 N 3.13 NE 4.47 N No 0.000 No Precipitation 05/28/2019 02:32 PM 05/28/2019 02:40 PM 0.000 0.000 0.000 0.000 0.000 Not Reported Not Reported
07/12/2019 04:01 AM 62.78 55.94 50.90 89.06 56.84 65.0 Not Reported 2.01 N 0.89 NW 3.36 NW No 0.000 No Precipitation 05/28/2019 02:32 PM 05/28/2019 02:40 PM 0.000 0.000 0.000 0.000 0.000 Not Reported Not Reported
07/12/2019 04:16 AM 62.24 55.58 50.72 89.06 56.84 66.0 Not Reported 2.91 NW 2.24 N 4.03 NW No 0.000 No Precipitation 05/28/2019 02:32 PM 05/28/2019 02:40 PM 0.000 0.000 0.000 0.000 0.000 Not Reported Not Reported
07/12/2019 04:31 AM 62.78 55.76 50.54 89.06 56.84 64.0 Not Reported 3.13 N 2.01 N 4.47 NW No 0.000 No Precipitation 05/28/2019 02:32 PM 05/28/2019 02:40 PM 0.000 0.000 0.000 0.000 0.000 Not Reported Not Reported
07/12/2019 04:46 AM 62.78 55.76 50.54 89.06 56.84 64.0 Not Reported 3.36 N 3.58 NW 4.03 N No 0.000 No Precipitation 05/28/2019 02:32 PM 05/28/2019 02:40 PM 0.000 0.000 0.000 0.000 0.000 Not Reported Not Reported
07/12/2019 05:01 AM 62.96 56.12 51.08 89.06 56.84 65.0 Not Reported 4.47 N 3.13 N 5.59 NW No 0.000 No Precipitation 05/28/2019 02:32 PM 05/28/2019 02:40 PM 0.000 0.000 0.000 0.000 0.000 Not Reported Not Reported
07/12/2019 05:16 AM 62.60 55.58 50.36 89.06 56.84 64.0 Not Reported 2.68 N 3.13 N 4.70 N No 0.000 No Precipitation 05/28/2019 02:32 PM 05/28/2019 02:40 PM 0.000 0.000 0.000 0.000 0.000 Not Reported Not Reported
07/12/2019 05:31 AM 61.88 55.04 50.00 89.06 56.84 64.0 Not Reported 2.01 N 3.13 N 3.80 N No 0.000 No Precipitation 05/28/2019 02:32 PM 05/28/2019 02:40 PM 0.000 0.000 0.000 0.000 0.000 Not Reported Not Reported
07/12/2019 05:46 AM 60.98 54.68 49.82 89.06 56.84 66.0 Not Reported 2.46 N 1.79 NW 4.70 NW No 0.000 No Precipitation 05/28/2019 02:32 PM 05/28/2019 02:40 PM 0.000 0.000 0.000 0.000 0.000 Not Reported Not Reported
07/12/2019 06:01 AM 61.52 54.86 50.00 89.06 56.84 65.0 Not Reported 2.01 N 2.01 N 3.36 NW No 0.000 No Precipitation 05/28/2019 02:32 PM 05/28/2019 02:40 PM 0.000 0.000 0.000 0.000 0.000 Not Reported Not Reported
07/12/2019 06:16 AM 60.98 54.68 49.82 89.06 56.84 66.0 Not Reported 1.57 N 0.45 N 3.36 N No 0.000 No Precipitation 05/28/2019 02:32 PM 05/28/2019 02:40 PM 0.000 0.000 0.000 0.000 0.000 Not Reported Not Reported
07/12/2019 06:31 AM 59.72 54.14 49.82 89.06 56.84 69.0 Not Reported 2.68 N 4.92 N 4.25 NW No 0.000 No Precipitation 05/28/2019 02:32 PM 05/28/2019 02:40 PM 0.000 0.000 0.000 0.000 0.000 Not Reported Not Reported
07/12/2019 06:46 AM 60.80 54.50 49.64 89.06 56.84 66.0 Not Reported 3.36 NW 3.58 N 6.26 N No 0.000 No Precipitation 05/28/2019 02:32 PM 05/28/2019 02:40 PM 0.000 0.000 0.000 0.000 0.000 Not Reported Not Reported
07/12/2019 07:01 AM 60.98 54.68 49.82 89.06 56.84 66.0 Not Reported 3.13 NW 3.80 NW 6.04 N No 0.000 No Precipitation 05/28/2019 02:32 PM 05/28/2019 02:40 PM 0.000 0.000 0.000 0.000 0.000 Not Reported Not Reported
07/12/2019 07:16 AM 60.62 54.32 49.46 89.06 57.02 66.0 Not Reported 3.13 N 1.79 N 4.25 NW No 0.000 No Precipitation 05/28/2019 02:32 PM 05/28/2019 02:40 PM 0.000 0.000 0.000 0.000 0.000 Not Reported Not Reported
07/12/2019 07:31 AM 59.90 54.14 49.64 89.06 57.02 68.0 Not Reported 3.36 N 3.80 NW 6.04 N No 0.000 No Precipitation 05/28/2019 02:32 PM 05/28/2019 02:40 PM 0.000 0.000 0.000 0.000 0.000 Not Reported Not Reported
07/12/2019 07:46 AM 59.90 54.14 49.64 89.06 57.02 68.0 Not Reported 3.36 N 2.46 N 4.47 NW No 0.000 No Precipitation 05/28/2019 02:32 PM 05/28/2019 02:40 PM 0.000 0.000 0.000 0.000 0.000 Not Reported Not Reported
07/12/2019 08:01 AM 59.72 53.96 49.46 89.06 58.10 68.0 Not Reported 3.36 N 3.58 N 5.37 N No 0.000 No Precipitation 05/28/2019 02:32 PM 05/28/2019 02:40 PM 0.000 0.000 0.000 0.000 0.000 Not Reported Not Reported
07/12/2019 08:16 AM 62.24 55.40 50.36 89.06 59.36 65.0 Not Reported 4.03 NW 2.46 N 4.92 N No 0.000 No Precipitation 05/28/2019 02:32 PM 05/28/2019 02:40 PM 0.000 0.000 0.000 0.000 0.000 Not Reported Not Reported
07/12/2019 08:31 AM 63.14 55.58 50.00 89.06 59.36 62.0 Not Reported 3.13 N 3.13 N 4.47 N No 0.000 No Precipitation 05/28/2019 02:32 PM 05/28/2019 02:40 PM 0.000 0.000 0.000 0.000 0.000 Not Reported Not Reported
07/12/2019 08:46 AM 65.12 56.84 50.90 89.06 59.36 59.0 Not Reported 1.79 N 2.01 N 4.03 NW No 0.000 No Precipitation 05/28/2019 02:32 PM 05/28/2019 02:40 PM 0.000 0.000 0.000 0.000 0.000 Not Reported Not Reported
07/12/2019 09:01 AM 64.76 56.48 50.54 89.06 59.36 59.0 Not Reported 3.13 N 3.58 N 4.03 NW No 0.000 No Precipitation 05/28/2019 02:32 PM 05/28/2019 02:40 PM 0.000 0.000 0.000 0.000 0.000 Not Reported Not Reported
07/12/2019 09:16 AM 66.20 57.20 50.72 89.06 59.36 57.0 Not Reported 2.01 N 2.24 NW 5.14 N No 0.000 No Precipitation 05/28/2019 02:32 PM 05/28/2019 02:40 PM 0.000 0.000 0.000 0.000 0.000 Not Reported Not Reported
07/12/2019 09:31 AM 68.18 58.28 51.44 89.06 59.36 54.0 Not Reported 3.36 N 4.47 N 4.03 N No 0.000 No Precipitation 05/28/2019 02:32 PM 05/28/2019 02:40 PM 0.000 0.000 0.000 0.000 0.000 Not Reported Not Reported
07/12/2019 09:46 AM 69.44 58.64 51.26 89.06 59.36 52.0 Not Reported 1.79 N 1.79 NE 4.92 NW No 0.000 No Precipitation 05/28/2019 02:32 PM 05/28/2019 02:40 PM 0.000 0.000 0.000 0.000 0.000 Not Reported Not Reported
07/12/2019 10:01 AM 69.98 58.82 51.08 89.06 59.36 50.0 Not Reported 1.34 N 2.01 NW 3.58 N No 0.000 No Precipitation 05/28/2019 02:32 PM 05/28/2019 02:40 PM 0.000 0.000 0.000 0.000 0.000 Not Reported Not Reported
07/12/2019 10:16 AM 70.88 59.36 51.62 89.06 59.36 50.0 Not Reported 1.34 NW 2.46 NW 2.91 NW No 0.000 No Precipitation 05/28/2019 02:32 PM 05/28/2019 02:40 PM 0.000 0.000 0.000 0.000 0.000 Not Reported Not Reported
07/12/2019 10:31 AM 71.78 59.90 51.80 89.06 59.36 49.0 Not Reported 3.36 N 2.24 NW 5.37 N No 0.000 No Precipitation 05/28/2019 02:32 PM 05/28/2019 02:40 PM 0.000 0.000 0.000 0.000 0.000 Not Reported Not Reported
07/12/2019 10:46 AM 73.58 60.62 51.80 89.06 59.36 46.0 Not Reported 0.67 N 0.45 NE 2.68 NW No 0.000 No Precipitation 05/28/2019 02:32 PM 05/28/2019 02:40 PM 0.000 0.000 0.000 0.000 0.000 Not Reported Not Reported
07/12/2019 11:01 AM 74.66 61.16 52.16 89.06 59.36 45.0 Not Reported 1.34 NE 1.12 E 2.46 E No 0.000 No Precipitation 05/28/2019 02:32 PM 05/28/2019 02:40 PM 0.000 0.000 0.000 0.000 0.000 Not Reported Not Reported
07/12/2019 11:16 AM 74.84 61.16 52.16 89.06 59.36 45.0 Not Reported 1.34 W 0.89 SW 3.36 S No 0.000 No Precipitation 05/28/2019 02:32 PM 05/28/2019 02:40 PM 0.000 0.000 0.000 0.000 0.000 Not Reported Not Reported
07/12/2019 11:31 AM 76.46 61.88 52.52 89.06 59.36 43.0 Not Reported 3.13 NE 3.58 NE 4.03 NE No 0.000 No Precipitation 05/28/2019 02:32 PM 05/28/2019 02:40 PM 0.000 0.000 0.000 0.000 0.000 Not Reported Not Reported
07/12/2019 11:46 AM 78.80 62.78 52.34 89.06 59.36 39.0 Not Reported 1.57 E 0.45 S 4.03 NE No 0.000 No Precipitation 05/28/2019 02:32 PM 05/28/2019 02:40 PM 0.000 0.000 0.000 0.000 0.000 Not Reported Not Reported
07/12/2019 12:01 PM 80.42 63.14 52.16 89.06 59.36 37.0 Not Reported 1.12 NW 1.12 N 3.58 SE No 0.000 No Precipitation 05/28/2019 02:32 PM 05/28/2019 02:40 PM 0.000 0.000 0.000 0.000 0.000 Not Reported Not Reported
07/12/2019 12:16 PM 80.42 63.14 51.80 89.06 59.36 37.0 Not Reported 2.91 SE 1.34 S 2.91 W No 0.000 No Precipitation 05/28/2019 02:32 PM 05/28/2019 02:40 PM 0.000 0.000 0.000 0.000 0.000 Not Reported Not Reported
07/12/2019 12:31 PM 82.76 63.86 51.80 89.06 59.36 34.0 Not Reported 4.03 S 5.14 SE 4.70 SE No 0.000 No Precipitation 05/28/2019 02:32 PM 05/28/2019 02:40 PM 0.000 0.000 0.000 0.000 0.000 Not Reported Not Reported
07/12/2019 12:46 PM 83.12 63.86 51.26 89.06 59.36 33.0 Not Reported 3.36 SW 3.13 W 5.82 S No 0.000 No Precipitation 05/28/2019 02:32 PM 05/28/2019 02:40 PM 0.000 0.000 0.000 0.000 0.000 Not Reported Not Reported
07/12/2019 01:01 PM 84.38 64.40 51.62 89.06 59.36 32.0 Not Reported 2.68 S 2.91 S 5.82 S No 0.000 No Precipitation 05/28/2019 02:32 PM 05/28/2019 02:40 PM 0.000 0.000 0.000 0.000 0.000 Not Reported Not Reported
07/12/2019 01:16 PM 84.02 63.68 50.54 89.06 59.36 31.0 Not Reported 4.92 S 3.80 SE 10.29 SE No 0.000 No Precipitation 05/28/2019 02:32 PM 05/28/2019 02:40 PM 0.000 0.000 0.000 0.000 0.000 Not Reported Not Reported
07/12/2019 01:31 PM 85.10 63.86 49.82 89.06 59.36 29.0 Not Reported 3.36 SW 1.12 SE 14.32 S No 0.000 No Precipitation 05/28/2019 02:32 PM 05/28/2019 02:40 PM 0.000 0.000 0.000 0.000 0.000 Not Reported Not Reported
07/12/2019 01:46 PM 85.28 63.50 49.10 89.06 59.36 28.0 Not Reported 7.38 S 6.49 SE 9.40 S No 0.000 No Precipitation 05/28/2019 02:32 PM 05/28/2019 02:40 PM 0.000 0.000 0.000 0.000 0.000 Not Reported Not Reported
07/12/2019 02:01 PM 85.82 64.22 50.18 89.06 59.36 29.0 Not Reported 7.83 S 4.47 S 10.51 SW No 0.000 No Precipitation 05/28/2019 02:32 PM 05/28/2019 02:40 PM 0.000 0.000 0.000 0.000 0.000 Not Reported Not Reported
07/12/2019 02:16 PM 86.00 63.86 49.10 89.06 59.36 28.0 Not Reported 3.36 SE 1.79 E 8.05 S No 0.000 No Precipitation 05/28/2019 02:32 PM 05/28/2019 02:40 PM 0.000 0.000 0.000 0.000 0.000 Not Reported Not Reported
07/12/2019 02:31 PM 87.98 64.58 49.28 89.06 59.36 26.0 Not Reported 2.24 S 2.68 SE 7.16 SW No 0.000 No Precipitation 05/28/2019 02:32 PM 05/28/2019 02:40 PM 0.000 0.000 0.000 0.000 0.000 Not Reported Not Reported
07/12/2019 02:46 PM 87.26 64.76 50.18 89.06 59.36 28.0 Not Reported 1.12 SW 2.01 NW 4.70 W No 0.000 No Precipitation 05/28/2019 02:32 PM 05/28/2019 02:40 PM 0.000 0.000 0.000 0.000 0.000 Not Reported Not Reported
07/12/2019 03:01 PM 86.90 64.22 49.28 89.06 59.36 27.0 Not Reported 2.24 NW 2.24 NE 6.93 NW No 0.000 No Precipitation 05/28/2019 02:32 PM 05/28/2019 02:40 PM 0.000 0.000 0.000 0.000 0.000 Not Reported Not Reported
07/12/2019 03:16 PM 87.98 64.40 48.74 89.06 59.36 25.0 Not Reported 2.91 SW 0.45 S 5.59 NW No 0.000 No Precipitation 05/28/2019 02:32 PM 05/28/2019 02:40 PM 0.000 0.000 0.000 0.000 0.000 Not Reported Not Reported
07/12/2019 03:31 PM 88.34 64.58 48.92 89.24 59.36 25.0 Not Reported 2.46 NW 5.37 NW 7.38 NW No 0.000 No Precipitation 05/28/2019 02:32 PM 05/28/2019 02:40 PM 0.000 0.000 0.000 0.000 0.000 Not Reported Not Reported
07/12/2019 03:46 PM 88.88 65.12 49.64 90.32 59.36 26.0 Not Reported 5.14 NW 6.93 NW 8.95 N No 0.000 No Precipitation 05/28/2019 02:32 PM 05/28/2019 02:40 PM 0.000 0.000 0.000 0.000 0.000 Not Reported Not Reported
07/12/2019 04:01 PM 90.32 65.84 50.18 90.32 59.36 25.0 Not Reported 4.92 NW 2.01 NW 9.17 NW No 0.000 No Precipitation 05/28/2019 02:32 PM 05/28/2019 02:40 PM 0.000 0.000 0.000 0.000 0.000 Not Reported Not Reported
07/12/2019 04:16 PM 89.42 64.76 48.56 90.68 59.36 24.0 Not Reported 4.25 NW 5.82 N 8.05 NW No 0.000 No Precipitation 05/28/2019 02:32 PM 05/28/2019 02:40 PM 0.000 0.000 0.000 0.000 0.000 Not Reported Not Reported
07/12/2019 04:31 PM 89.06 64.58 48.20 91.04 59.36 24.0 Not Reported 4.92 N 6.93 N 6.71 NW No 0.000 No Precipitation 05/28/2019 02:32 PM 05/28/2019 02:40 PM 0.000 0.000 0.000 0.000 0.000 Not Reported Not Reported
07/12/2019 04:46 PM 89.96 64.40 46.94 91.04 59.36 22.0 Not Reported 3.58 NW 2.46 N 6.93 N No 0.000 No Precipitation 05/28/2019 02:32 PM 05/28/2019 02:40 PM 0.000 0.000 0.000 0.000 0.000 Not Reported Not Reported
07/12/2019 05:01 PM 90.50 64.40 46.58 91.04 59.36 21.0 Not Reported 3.80 NW 3.58 NW 8.28 NW No 0.000 No Precipitation 05/28/2019 02:32 PM 05/28/2019 02:40 PM 0.000 0.000 0.000 0.000 0.000 Not Reported Not Reported
07/12/2019 05:16 PM 90.14 63.86 45.14 91.22 59.36 21.0 Not Reported 6.04 N 7.61 NW 8.95 NW No 0.000 No Precipitation 05/28/2019 02:32 PM 05/28/2019 02:40 PM 0.000 0.000 0.000 0.000 0.000 Not Reported Not Reported
07/12/2019 05:31 PM 90.32 63.86 45.14 91.22 59.36 21.0 Not Reported 4.25 N 4.92 N 7.38 NW No 0.000 No Precipitation 05/28/2019 02:32 PM 05/28/2019 02:40 PM 0.000 0.000 0.000 0.000 0.000 Not Reported Not Reported
07/12/2019 05:46 PM 89.96 63.50 44.78 91.22 59.36 20.0 Not Reported 5.59 N 8.72 NW 8.95 N No 0.000 No Precipitation 05/28/2019 02:32 PM 05/28/2019 02:40 PM 0.000 0.000 0.000 0.000 0.000 Not Reported Not Reported
07/12/2019 06:01 PM 90.14 63.50 44.60 91.22 59.36 20.0 Not Reported 5.14 N 3.13 N 6.49 NW No 0.000 No Precipitation 05/28/2019 02:32 PM 05/28/2019 02:40 PM 0.000 0.000 0.000 0.000 0.000 Not Reported Not Reported
07/12/2019 06:16 PM 89.96 62.96 43.16 91.22 59.36 19.0 Not Reported 3.13 N 3.13 N 6.71 NE No 0.000 No Precipitation 05/28/2019 02:32 PM 05/28/2019 02:40 PM 0.000 0.000 0.000 0.000 0.000 Not Reported Not Reported
07/12/2019 06:31 PM 89.24 62.42 42.44 91.22 59.36 19.0 Not Reported 6.71 N 8.05 NW 8.28 N No 0.000 No Precipitation 05/28/2019 02:32 PM 05/28/2019 02:40 PM 0.000 0.000 0.000 0.000 0.000 Not Reported Not Reported
07/12/2019 06:46 PM 88.52 62.42 42.80 91.22 59.36 20.0 Not Reported 4.92 NW 4.25 N 8.05 NW No 0.000 No Precipitation 05/28/2019 02:32 PM 05/28/2019 02:40 PM 0.000 0.000 0.000 0.000 0.000 Not Reported Not Reported
07/12/2019 07:01 PM 88.34 62.42 43.16 91.22 59.36 20.0 Not Reported 4.25 W 5.37 NE 6.93 N No 0.000 No Precipitation 05/28/2019 02:32 PM 05/28/2019 02:40 PM 0.000 0.000 0.000 0.000 0.000 Not Reported Not Reported
07/12/2019 07:16 PM 87.80 62.24 43.34 91.22 59.36 21.0 Not Reported 4.03 N 2.46 NW 7.16 N No 0.000 No Precipitation 05/28/2019 02:32 PM 05/28/2019 02:40 PM 0.000 0.000 0.000 0.000 0.000 Not Reported Not Reported
07/12/2019 07:31 PM 87.08 61.70 42.44 91.22 59.36 20.0 Not Reported 4.47 N 4.03 NW 6.49 NW No 0.000 No Precipitation 05/28/2019 02:32 PM 05/28/2019 02:40 PM 0.000 0.000 0.000 0.000 0.000 Not Reported Not Reported
07/12/2019 07:46 PM 85.82 61.16 42.26 91.22 59.36 21.0 Not Reported 3.36 NW 2.01 S 6.04 NW No 0.000 No Precipitation 05/28/2019 02:32 PM 05/28/2019 02:40 PM 0.000 0.000 0.000 0.000 0.000 Not Reported Not Reported
07/12/2019 08:01 PM 85.28 60.98 42.26 91.22 59.36 22.0 Not Reported 3.58 N 3.13 NE 6.49 NW No 0.000 No Precipitation 05/28/2019 02:32 PM 05/28/2019 02:40 PM 0.000 0.000 0.000 0.000 0.000 Not Reported Not Reported
07/12/2019 08:16 PM 84.92 60.98 42.44 91.22 59.36 22.0 Not Reported 2.46 NW 2.91 NW 6.71 NW No 0.000 No Precipitation 05/28/2019 02:32 PM 05/28/2019 02:40 PM 0.000 0.000 0.000 0.000 0.000 Not Reported Not Reported
07/12/2019 08:31 PM 84.02 60.62 42.62 91.22 59.36 23.0 Not Reported 2.46 NW 2.46 NW 4.25 NW No 0.000 No Precipitation 05/28/2019 02:32 PM 05/28/2019 02:40 PM 0.000 0.000 0.000 0.000 0.000 Not Reported Not Reported
07/12/2019 08:46 PM 83.66 60.44 42.62 91.22 59.36 23.0 Not Reported 2.01 N 1.12 W 4.92 NW No 0.000 No Precipitation 05/28/2019 02:32 PM 05/28/2019 02:40 PM 0.000 0.000 0.000 0.000 0.000 Not Reported Not Reported
07/12/2019 09:01 PM 83.12 60.62 43.34 91.22 59.36 24.0 Not Reported 2.91 N 3.58 N 5.59 W No 0.000 No Precipitation 05/28/2019 02:32 PM 05/28/2019 02:40 PM 0.000 0.000 0.000 0.000 0.000 Not Reported Not Reported
07/12/2019 09:16 PM 80.06 61.88 49.46 91.22 59.36 34.0 Not Reported 6.04 N 6.93 N 9.84 N No 0.000 No Precipitation 05/28/2019 02:32 PM 05/28/2019 02:40 PM 0.000 0.000 0.000 0.000 0.000 Not Reported Not Reported
07/12/2019 09:31 PM 78.80 61.52 49.64 91.22 59.36 36.0 Not Reported 5.82 N 6.04 N 8.28 N No 0.000 No Precipitation 05/28/2019 02:32 PM 05/28/2019 02:40 PM 0.000 0.000 0.000 0.000 0.000 Not Reported Not Reported
07/12/2019 09:46 PM 77.54 61.34 50.36 91.22 59.36 38.0 Not Reported 5.82 N 5.37 N 6.71 NW No 0.000 No Precipitation 05/28/2019 02:32 PM 05/28/2019 02:40 PM 0.000 0.000 0.000 0.000 0.000 Not Reported Not Reported
07/12/2019 10:01 PM 77.00 60.98 50.00 91.22 59.36 38.0 Not Reported 2.46 N 2.01 N 8.95 NE No 0.000 No Precipitation 05/28/2019 02:32 PM 05/28/2019 02:40 PM 0.000 0.000 0.000 0.000 0.000 Not Reported Not Reported
07/12/2019 10:16 PM 76.10 60.98 50.54 91.22 59.36 40.0 Not Reported 4.70 N 2.91 W 8.50 N No 0.000 No Precipitation 05/28/2019 02:32 PM 05/28/2019 02:40 PM 0.000 0.000 0.000 0.000 0.000 Not Reported Not Reported
07/12/2019 10:31 PM 75.02 60.62 50.90 91.22 59.36 42.0 Not Reported 5.37 N 8.05 N 10.51 N No 0.000 No Precipitation 05/28/2019 02:32 PM 05/28/2019 02:40 PM 0.000 0.000 0.000 0.000 0.000 Not Reported Not Reported
07/12/2019 10:46 PM 75.02 60.62 50.54 91.22 59.36 42.0 Not Reported 6.93 NE 5.59 NE 8.05 N No 0.000 No Precipitation 05/28/2019 02:32 PM 05/28/2019 02:40 PM 0.000 0.000 0.000 0.000 0.000 Not Reported Not Reported
07/12/2019 11:01 PM 73.94 60.44 51.26 91.22 59.36 44.0 Not Reported 7.83 N 4.47 N 9.62 N No 0.000 No Precipitation 05/28/2019 02:32 PM 05/28/2019 02:40 PM 0.000 0.000 0.000 0.000 0.000 Not Reported Not Reported
07/12/2019 11:16 PM 72.86 60.08 51.26 91.22 59.36 46.0 Not Reported 5.82 N 5.82 N 12.30 NE No 0.000 No Precipitation 05/28/2019 02:32 PM 05/28/2019 02:40 PM 0.000 0.000 0.000 0.000 0.000 Not Reported Not Reported
07/12/2019 11:31 PM 72.50 59.90 51.26 91.22 59.36 47.0 Not Reported 3.80 NW 8.72 S 7.38 N No 0.000 No Precipitation 05/28/2019 02:32 PM 05/28/2019 02:40 PM 0.000 0.000 0.000 0.000 0.000 Not Reported Not Reported
07/12/2019 11:46 PM 71.96 59.72 51.26 91.22 59.36 47.0 Not Reported 4.92 N 4.25 N 9.84 NE No 0.000 No Precipitation 05/28/2019 02:32 PM 05/28/2019 02:40 PM 0.000 0.000 0.000 0.000 0.000 Not Reported Not Reported